createdAt,value
2019-05-20T00:00:09.400Z,31.07
2019-05-20T00:02:38.610Z,34.17
2019-05-20T00:05:08.461Z,33.33
2019-05-20T00:07:37.854Z,30.87
2019-05-20T00:10:07.681Z,29.67
2019-05-20T00:12:36.944Z,29.13
2019-05-20T00:15:06.501Z,29.77
2019-05-20T00:17:35.788Z,29.50
2019-05-20T00:20:05.559Z,30.07
2019-05-20T00:22:34.933Z,32.27
2019-05-20T00:25:05.103Z,30.57
2019-05-20T00:27:34.365Z,33.67
2019-05-20T00:30:03.597Z,29.20
2019-05-20T00:32:40.952Z,28.17
2019-05-20T00:35:03.874Z,31.13
2019-05-20T00:37:33.338Z,22.93
2019-05-20T00:40:02.624Z,34.13
2019-05-20T00:42:31.880Z,30.10
2019-05-20T00:45:01.459Z,28.93
2019-05-20T00:47:30.726Z,29.77
2019-05-20T00:49:59.978Z,32.00
2019-05-20T00:52:29.279Z,27.07
2019-05-20T00:54:58.614Z,27.77
2019-05-20T00:57:27.854Z,26.23
2019-05-20T00:59:57.149Z,27.77
2019-05-20T01:02:26.512Z,32.50
2019-05-20T01:04:55.694Z,27.17
2019-05-20T01:07:25.086Z,30.10
2019-05-20T01:09:54.344Z,24.97
2019-05-20T01:12:23.676Z,27.07
2019-05-20T01:14:53.080Z,26.80
2019-05-20T01:17:22.345Z,21.90
2019-05-20T01:19:51.618Z,21.13
2019-05-20T01:22:20.920Z,22.67
2019-05-20T01:24:50.088Z,24.37
2019-05-20T01:27:19.339Z,24.43
2019-05-20T01:29:48.862Z,26.03
2019-05-20T01:32:18.123Z,22.90
2019-05-20T01:34:47.373Z,23.47
2019-05-20T01:37:16.680Z,20.20
2019-05-20T01:39:45.851Z,26.13
2019-05-20T01:42:15.116Z,25.83
2019-05-20T01:44:44.430Z,23.80
2019-05-20T01:47:14.434Z,21.03
2019-05-20T01:49:43.706Z,21.90
2019-05-20T01:52:12.968Z,23.97
2019-05-20T01:54:42.194Z,20.90
2019-05-20T01:57:11.384Z,23.03
2019-05-20T01:59:40.620Z,20.87
2019-05-20T02:02:09.962Z,21.17
2019-05-20T02:04:39.217Z,20.03
2019-05-20T02:07:09.007Z,20.73
2019-05-20T02:09:38.266Z,20.20
2019-05-20T02:12:07.528Z,19.00
2019-05-20T02:14:41.950Z,18.37
2019-05-20T02:17:11.230Z,22.10
2019-05-20T02:19:40.473Z,16.13
2019-05-20T02:22:09.771Z,17.13
2019-05-20T02:24:39.037Z,23.77
2019-05-20T02:27:08.302Z,18.43
2019-05-20T02:29:37.514Z,18.50
2019-05-20T02:32:06.701Z,22.47
2019-05-20T02:34:35.882Z,17.80
2019-05-20T02:37:05.153Z,19.23
2019-05-20T02:39:34.348Z,24.67
2019-05-20T02:42:03.615Z,19.60
2019-05-20T02:44:32.904Z,18.60
2019-05-20T02:47:02.152Z,17.73
2019-05-20T02:49:31.330Z,17.33
2019-05-20T02:52:00.618Z,19.80
2019-05-20T02:54:29.807Z,20.53
2019-05-20T02:56:59.059Z,20.97
2019-05-20T02:59:28.283Z,17.87
2019-05-20T03:01:57.573Z,16.33
2019-05-20T03:04:27.451Z,20.70
2019-05-20T03:06:56.741Z,15.80
2019-05-20T03:09:25.998Z,17.67
2019-05-20T03:11:56.995Z,15.87
2019-05-20T03:14:26.273Z,17.87
2019-05-20T03:16:55.456Z,17.70
2019-05-20T03:19:24.713Z,19.40
2019-05-20T03:21:54.133Z,18.07
2019-05-20T03:24:23.390Z,19.63
2019-05-20T03:26:52.646Z,17.27
2019-05-20T03:29:21.959Z,14.63
2019-05-20T03:31:51.221Z,16.23
2019-05-20T03:34:44.117Z,17.90
2019-05-20T03:36:51.484Z,18.97
2019-05-20T03:39:20.741Z,15.83
2019-05-20T03:41:50.006Z,17.53
2019-05-20T03:44:19.215Z,16.30
2019-05-20T03:46:48.477Z,17.20
2019-05-20T03:49:17.652Z,16.90
2019-05-20T03:51:46.936Z,14.17
2019-05-20T03:54:16.199Z,15.80
2019-05-20T03:56:45.473Z,16.00
2019-05-20T03:59:14.763Z,16.07
2019-05-20T04:01:44.020Z,14.70
2019-05-20T04:04:13.198Z,18.50
2019-05-20T04:06:42.424Z,18.33
2019-05-20T04:09:11.778Z,19.50
2019-05-20T04:11:41.022Z,15.67
2019-05-20T04:14:10.374Z,23.80
2019-05-20T04:16:39.662Z,17.73
2019-05-20T04:19:08.935Z,20.70
2019-05-20T04:21:38.174Z,21.80
2019-05-20T04:24:07.377Z,23.87
2019-05-20T04:26:37.032Z,21.10
2019-05-20T04:29:06.330Z,18.90
2019-05-20T04:31:35.593Z,18.33
2019-05-20T04:34:05.041Z,22.20
2019-05-20T04:36:34.324Z,19.73
2019-05-20T04:39:04.654Z,17.90
2019-05-20T04:41:35.805Z,19.83
2019-05-20T04:44:05.115Z,17.80
2019-05-20T04:46:34.388Z,17.47
2019-05-20T04:49:03.579Z,20.33
2019-05-20T04:51:32.796Z,21.33
2019-05-20T04:54:02.050Z,15.97
2019-05-20T04:56:31.310Z,18.50
2019-05-20T04:59:00.684Z,20.13
2019-05-20T05:01:30.147Z,16.77
2019-05-20T05:03:59.425Z,20.57
2019-05-20T05:06:28.723Z,18.50
2019-05-20T05:08:58.113Z,16.83
2019-05-20T05:11:27.384Z,18.00
2019-05-20T05:13:56.700Z,16.17
2019-05-20T05:16:25.927Z,21.13
2019-05-20T05:18:55.180Z,18.00
2019-05-20T05:21:24.614Z,20.27
2019-05-20T05:23:59.284Z,16.80
2019-05-20T05:26:24.702Z,18.03
2019-05-20T05:28:53.993Z,19.20
2019-05-20T05:31:23.257Z,14.50
2019-05-20T05:33:54.359Z,17.23
2019-05-20T05:36:23.488Z,18.90
2019-05-20T05:38:52.684Z,18.73
2019-05-20T05:41:22.264Z,19.27
2019-05-20T05:43:51.491Z,17.40
2019-05-20T05:46:20.763Z,20.10
2019-05-20T05:48:49.983Z,17.93
2019-05-20T05:51:19.403Z,17.47
2019-05-20T05:53:48.739Z,15.43
2019-05-20T05:56:17.933Z,15.03
2019-05-20T05:58:47.343Z,17.40
2019-05-20T06:01:16.611Z,16.67
2019-05-20T06:03:46.077Z,12.60
2019-05-20T06:06:15.381Z,14.73
2019-05-20T06:08:44.653Z,19.33
2019-05-20T06:11:13.841Z,13.93
2019-05-20T06:14:02.120Z,15.77
2019-05-20T06:16:36.546Z,15.30
2019-05-20T06:19:02.253Z,15.27
2019-05-20T06:21:31.551Z,12.77
2019-05-20T06:24:00.815Z,14.00
2019-05-20T06:26:30.078Z,15.17
2019-05-20T06:29:02.721Z,12.80
2019-05-20T06:31:30.380Z,14.67
2019-05-20T06:33:59.639Z,12.67
2019-05-20T06:36:28.911Z,16.30
2019-05-20T06:39:11.896Z,16.30
2019-05-20T06:41:41.605Z,14.60
2019-05-20T06:44:11.429Z,11.97
2019-05-20T06:46:40.690Z,15.13
2019-05-20T06:49:10.162Z,14.50
2019-05-20T06:51:39.516Z,11.67
2019-05-20T06:54:08.766Z,11.37
2019-05-20T06:56:38.089Z,11.67
2019-05-20T06:59:07.367Z,12.87
2019-05-20T07:01:36.641Z,10.97
2019-05-20T07:04:05.852Z,13.33
2019-05-20T07:06:46.011Z,12.60
2019-05-20T07:09:07.018Z,12.10
2019-05-20T07:11:36.219Z,15.83
2019-05-20T07:14:06.081Z,11.43
2019-05-20T07:16:35.291Z,11.20
2019-05-20T07:19:05.048Z,12.60
2019-05-20T07:21:34.252Z,10.23
2019-05-20T07:24:04.314Z,11.67
2019-05-20T07:26:33.613Z,10.60
2019-05-20T07:29:02.867Z,10.07
2019-05-20T07:31:32.197Z,10.60
2019-05-20T07:34:01.398Z,9.13
2019-05-20T07:36:30.716Z,9.37
2019-05-20T07:38:59.999Z,10.50
2019-05-20T07:41:29.230Z,12.90
2019-05-20T07:43:58.488Z,9.97
2019-05-20T07:46:28.602Z,10.43
2019-05-20T07:48:59.451Z,10.83
2019-05-20T07:51:29.601Z,13.27
2019-05-20T07:53:59.375Z,10.90
2019-05-20T07:56:31.802Z,9.30
2019-05-20T07:59:03.973Z,8.37
2019-05-20T08:01:33.345Z,10.60
2019-05-20T08:04:02.714Z,9.03
2019-05-20T08:06:31.955Z,12.37
2019-05-20T08:09:01.376Z,10.00
2019-05-20T08:11:30.654Z,10.00
2019-05-20T08:13:59.989Z,9.40
2019-05-20T08:16:29.169Z,8.43
2019-05-20T08:18:58.409Z,8.53
2019-05-20T08:21:27.770Z,11.13
2019-05-20T08:23:56.952Z,10.63
2019-05-20T08:26:26.197Z,9.60
2019-05-20T08:28:55.564Z,9.70
2019-05-20T08:31:25.125Z,11.07
2019-05-20T08:33:54.518Z,9.53
2019-05-20T08:36:24.019Z,9.70
2019-05-20T08:38:53.298Z,13.07
2019-05-20T08:41:22.630Z,12.40
2019-05-20T08:43:51.990Z,8.67
2019-05-20T08:46:21.225Z,9.90
2019-05-20T08:48:50.543Z,9.17
2019-05-20T08:51:19.899Z,10.63
2019-05-20T08:53:49.175Z,9.57
2019-05-20T08:56:18.495Z,8.67
2019-05-20T08:58:47.885Z,11.10
2019-05-20T09:01:17.237Z,10.40
2019-05-20T09:03:46.537Z,9.50
2019-05-20T09:06:20.396Z,8.43
2019-05-20T09:08:46.867Z,11.97
2019-05-20T09:11:16.090Z,9.00
2019-05-20T09:13:45.544Z,11.07
2019-05-20T09:16:15.199Z,11.67
2019-05-20T09:18:44.424Z,12.40
2019-05-20T09:21:13.882Z,13.07
2019-05-20T09:23:43.290Z,9.73
2019-05-20T09:26:12.657Z,12.10
2019-05-20T09:28:42.025Z,10.43
2019-05-20T09:31:11.287Z,10.57
2019-05-20T09:33:40.515Z,11.90
2019-05-20T09:36:09.777Z,11.80
2019-05-20T09:38:39.241Z,11.43
2019-05-20T09:41:08.678Z,11.90
2019-05-20T09:43:38.032Z,11.67
2019-05-20T09:46:08.410Z,10.60
2019-05-20T09:48:37.796Z,13.60
2019-05-20T09:51:07.135Z,13.50
2019-05-20T09:53:36.565Z,15.37
2019-05-20T09:56:06.082Z,12.87
2019-05-20T09:58:35.262Z,14.50
2019-05-20T10:01:04.589Z,13.10
2019-05-20T10:03:33.974Z,13.40
2019-05-20T10:06:03.359Z,14.40
2019-05-20T10:08:39.173Z,12.53
2019-05-20T10:11:03.771Z,13.50
2019-05-20T10:13:33.114Z,14.80
2019-05-20T10:16:02.435Z,17.23
2019-05-20T10:18:37.419Z,17.50
2019-05-20T10:21:02.919Z,15.20
2019-05-20T10:23:32.334Z,16.00
2019-05-20T10:26:01.555Z,12.70
2019-05-20T10:28:30.821Z,13.17
2019-05-20T10:31:00.018Z,15.50
2019-05-20T10:33:29.392Z,11.57
2019-05-20T10:35:58.665Z,13.90
2019-05-20T10:38:28.004Z,13.77
2019-05-20T10:40:57.319Z,12.43
2019-05-20T10:43:26.574Z,12.43
2019-05-20T10:45:55.869Z,12.20
2019-05-20T10:48:25.178Z,11.80
2019-05-20T10:50:54.368Z,12.83
2019-05-20T10:53:23.652Z,12.80
2019-05-20T10:55:52.878Z,14.87
2019-05-20T10:58:22.131Z,12.13
2019-05-20T11:01:02.481Z,11.77
2019-05-20T11:03:22.560Z,11.67
2019-05-20T11:05:52.042Z,11.70
2019-05-20T11:08:21.305Z,11.90
2019-05-20T11:10:50.550Z,11.00
2019-05-20T11:13:19.815Z,13.23
2019-05-20T11:15:49.076Z,11.80
2019-05-20T11:18:18.356Z,11.97
2019-05-20T11:20:47.642Z,11.30
2019-05-20T11:23:16.886Z,12.47
2019-05-20T11:25:46.187Z,12.80
2019-05-20T11:28:15.519Z,11.47
2019-05-20T11:30:44.978Z,8.37
2019-05-20T11:33:14.287Z,10.67
2019-05-20T11:35:43.550Z,11.20
2019-05-20T11:38:12.938Z,13.30
2019-05-20T11:40:42.307Z,12.47
2019-05-20T11:43:11.679Z,12.00
2019-05-20T11:45:41.325Z,9.90
2019-05-20T11:48:10.752Z,12.23
2019-05-20T11:50:40.022Z,11.57
2019-05-20T11:53:09.386Z,11.70
2019-05-20T11:55:39.043Z,11.47
2019-05-20T11:58:15.777Z,14.43
2019-05-20T12:00:39.307Z,14.03
2019-05-20T12:03:08.597Z,12.20
2019-05-20T12:05:37.873Z,11.77
2019-05-20T12:08:07.251Z,10.90
2019-05-20T12:10:36.592Z,11.30
2019-05-20T12:13:05.886Z,13.30
2019-05-20T12:15:35.210Z,13.60
2019-05-20T12:18:04.583Z,11.23
2019-05-20T12:20:33.856Z,9.80
2019-05-20T12:23:03.190Z,9.67
2019-05-20T12:25:32.388Z,13.50
2019-05-20T12:28:01.736Z,11.63
2019-05-20T12:30:30.944Z,15.03
2019-05-20T12:33:17.891Z,10.77
2019-05-20T12:35:31.295Z,13.33
2019-05-20T12:38:00.913Z,10.23
2019-05-20T12:40:30.132Z,10.87
2019-05-20T12:42:59.400Z,12.73
2019-05-20T12:45:28.591Z,13.40
2019-05-20T12:47:57.925Z,13.63
2019-05-20T12:50:27.215Z,11.43
2019-05-20T12:52:56.910Z,13.40
2019-05-20T12:55:26.204Z,12.60
2019-05-20T12:57:55.474Z,10.63
2019-05-20T13:00:25.138Z,11.83
2019-05-20T13:02:54.360Z,10.70
2019-05-20T13:05:23.551Z,9.10
2019-05-20T13:07:52.895Z,10.47
2019-05-20T13:10:30.363Z,10.90
2019-05-20T13:12:53.209Z,13.70
2019-05-20T13:15:22.844Z,13.60
2019-05-20T13:17:52.516Z,11.70
2019-05-20T13:20:22.032Z,13.50
2019-05-20T13:22:51.918Z,12.37
2019-05-20T13:25:21.906Z,14.33
2019-05-20T13:27:51.089Z,12.37
2019-05-20T13:30:21.085Z,13.20
2019-05-20T13:32:50.431Z,11.00
2019-05-20T13:35:19.609Z,12.73
2019-05-20T13:37:49.438Z,12.87
2019-05-20T13:40:19.178Z,12.70
2019-05-20T13:42:48.436Z,10.10
2019-05-20T13:45:17.936Z,13.00
2019-05-20T13:47:47.282Z,12.30
2019-05-20T13:50:17.016Z,12.30
2019-05-20T13:52:46.196Z,11.30
2019-05-20T13:55:15.799Z,13.33
2019-05-20T13:57:45.060Z,10.67
2019-05-20T14:00:15.208Z,12.03
2019-05-20T14:02:44.431Z,12.80
2019-05-20T14:05:13.847Z,12.20
2019-05-20T14:07:43.047Z,9.67
2019-05-20T14:10:12.981Z,11.17
2019-05-20T14:12:42.174Z,11.83
2019-05-20T14:15:11.681Z,12.50
2019-05-20T14:17:41.131Z,14.43
2019-05-20T14:20:10.613Z,15.60
2019-05-20T14:22:39.953Z,12.73
2019-05-20T14:25:09.686Z,13.77
2019-05-20T14:27:39.016Z,13.00
2019-05-20T14:30:08.660Z,12.83
2019-05-20T14:32:38.270Z,14.63
2019-05-20T14:35:07.914Z,9.90
2019-05-20T14:37:37.125Z,10.70
2019-05-20T14:40:08.288Z,11.37
2019-05-20T14:42:37.504Z,10.60
2019-05-20T14:45:07.496Z,11.53
2019-05-20T14:47:36.857Z,11.83
2019-05-20T14:50:07.033Z,13.00
2019-05-20T14:52:36.402Z,12.20
2019-05-20T14:55:06.465Z,12.33
2019-05-20T14:57:35.740Z,12.17
2019-05-20T15:00:06.059Z,11.07
2019-05-20T15:02:35.344Z,11.60
2019-05-20T15:05:04.891Z,11.63
2019-05-20T15:07:34.236Z,11.87
2019-05-20T15:10:04.333Z,9.90
2019-05-20T15:12:33.610Z,11.20
2019-05-20T15:15:02.884Z,9.37
2019-05-20T15:17:32.168Z,9.97
2019-05-20T15:20:01.433Z,10.80
2019-05-20T15:22:30.672Z,10.73
2019-05-20T15:24:59.921Z,9.80
2019-05-20T15:27:29.278Z,9.20
2019-05-20T15:29:58.542Z,11.30
2019-05-20T15:32:27.848Z,10.10
2019-05-20T15:34:57.145Z,13.37
2019-05-20T15:37:26.393Z,11.80
2019-05-20T15:39:55.611Z,9.73
2019-05-20T15:42:24.881Z,11.17
2019-05-20T15:44:54.139Z,9.77
2019-05-20T15:47:23.520Z,11.90
2019-05-20T15:49:52.850Z,8.37
2019-05-20T15:52:22.120Z,10.57
2019-05-20T15:54:51.425Z,11.10
2019-05-20T15:57:20.674Z,9.17
2019-05-20T15:59:50.145Z,10.13
2019-05-20T16:02:19.407Z,7.80
2019-05-20T16:04:48.672Z,9.50
2019-05-20T16:07:17.937Z,8.43
2019-05-20T16:09:47.521Z,9.83
2019-05-20T16:12:16.778Z,10.63
2019-05-20T16:14:46.230Z,6.67
2019-05-20T16:17:15.530Z,6.80
2019-05-20T16:19:44.984Z,5.90
2019-05-20T16:22:14.634Z,9.40
2019-05-20T16:24:45.416Z,8.10
2019-05-20T16:27:16.657Z,8.83
2019-05-20T16:30:00.604Z,7.53
2019-05-20T16:32:16.912Z,7.67
2019-05-20T16:34:46.120Z,9.13
2019-05-20T16:37:15.310Z,10.00
2019-05-20T16:39:44.587Z,7.40
2019-05-20T16:42:13.854Z,7.53
2019-05-20T16:44:43.125Z,7.03
2019-05-20T16:47:12.414Z,7.50
2019-05-20T16:49:41.668Z,8.30
2019-05-20T16:52:10.926Z,8.57
2019-05-20T16:54:40.292Z,9.00
2019-05-20T16:57:09.637Z,8.80
2019-05-20T16:59:38.825Z,9.23
2019-05-20T17:02:08.183Z,8.87
2019-05-20T17:04:37.603Z,9.13
2019-05-20T17:07:06.861Z,10.53
2019-05-20T17:09:36.135Z,6.63
2019-05-20T17:12:05.602Z,9.70
2019-05-20T17:14:34.856Z,10.03
2019-05-20T17:17:04.080Z,8.53
2019-05-20T17:19:33.341Z,8.93
2019-05-20T17:22:02.597Z,10.40
2019-05-20T17:24:31.872Z,8.37
2019-05-20T17:27:01.062Z,9.40
2019-05-20T17:29:32.107Z,8.23
2019-05-20T17:32:01.660Z,8.60
2019-05-20T17:34:30.909Z,9.30
2019-05-20T17:37:00.249Z,10.93
2019-05-20T17:39:29.511Z,9.50
2019-05-20T17:41:58.836Z,13.17
2019-05-20T17:44:28.058Z,12.80
2019-05-20T17:46:57.363Z,12.23
2019-05-20T17:49:26.710Z,10.03
2019-05-20T17:51:55.932Z,13.57
2019-05-20T17:54:25.148Z,12.33
2019-05-20T17:56:54.410Z,10.93
2019-05-20T17:59:23.600Z,12.37
2019-05-20T18:01:52.898Z,12.33
2019-05-20T18:04:22.158Z,13.10
2019-05-20T18:06:51.596Z,10.13
2019-05-20T18:09:21.449Z,10.33
2019-05-20T18:11:53.818Z,11.77
2019-05-20T18:14:25.216Z,8.60
2019-05-20T18:16:54.556Z,10.93
2019-05-20T18:19:23.816Z,10.60
2019-05-20T18:21:53.104Z,8.87
2019-05-20T18:24:22.298Z,10.10
2019-05-20T18:26:51.479Z,10.43
2019-05-20T18:29:20.673Z,11.07
2019-05-20T18:31:49.885Z,11.43
2019-05-20T18:34:19.146Z,11.10
2019-05-20T18:36:48.435Z,12.10
2019-05-20T18:39:17.696Z,12.10
2019-05-20T18:41:46.970Z,10.30
2019-05-20T18:44:16.264Z,10.30
2019-05-20T18:46:45.534Z,13.10
2019-05-20T18:49:14.792Z,13.17
2019-05-20T18:51:44.088Z,14.90
2019-05-20T18:54:13.351Z,13.13
2019-05-20T18:56:42.699Z,14.83
2019-05-20T18:59:12.089Z,14.63
2019-05-20T19:01:50.829Z,11.70
2019-05-20T19:04:12.482Z,16.37
2019-05-20T19:06:41.763Z,16.60
2019-05-20T19:09:11.713Z,13.50
2019-05-20T19:11:40.964Z,15.47
2019-05-20T19:14:10.258Z,15.80
2019-05-20T19:16:39.823Z,16.40
2019-05-20T19:19:09.024Z,15.37
2019-05-20T19:21:38.454Z,13.40
2019-05-20T19:24:07.653Z,14.23
2019-05-20T19:26:36.997Z,12.67
2019-05-20T19:29:06.254Z,15.30
2019-05-20T19:31:35.706Z,15.23
2019-05-20T19:34:05.004Z,14.80
2019-05-20T19:36:34.495Z,16.03
2019-05-20T19:39:04.826Z,13.57
2019-05-20T19:41:34.276Z,14.17
2019-05-20T19:44:03.578Z,14.10
2019-05-20T19:46:32.833Z,13.10
2019-05-20T19:49:02.115Z,15.30
2019-05-20T19:51:31.412Z,16.57
2019-05-20T19:54:00.850Z,14.50
2019-05-20T19:56:30.120Z,19.97
2019-05-20T19:58:59.450Z,14.37
2019-05-20T20:01:28.786Z,13.47
2019-05-20T20:03:57.982Z,14.67
2019-05-20T20:06:27.295Z,12.60
2019-05-20T20:08:56.654Z,15.13
2019-05-20T20:11:26.011Z,13.70
2019-05-20T20:13:55.315Z,12.83
2019-05-20T20:16:24.526Z,11.10
2019-05-20T20:18:53.826Z,12.23
2019-05-20T20:21:42.126Z,11.17
2019-05-20T20:24:11.379Z,17.17
2019-05-20T20:26:40.674Z,12.23
2019-05-20T20:29:11.256Z,14.50
2019-05-20T20:31:40.883Z,15.33
2019-05-20T20:34:10.105Z,12.87
2019-05-20T20:36:39.416Z,12.67
2019-05-20T20:39:08.754Z,14.37
2019-05-20T20:41:37.949Z,14.97
2019-05-20T20:44:07.472Z,11.47
2019-05-20T20:46:36.664Z,15.37
2019-05-20T20:49:05.861Z,12.97
2019-05-20T20:51:35.232Z,12.07
2019-05-20T20:54:04.736Z,13.60
2019-05-20T20:56:34.389Z,14.80
2019-05-20T20:59:04.048Z,14.60
2019-05-20T21:01:33.247Z,13.77
2019-05-20T21:04:02.450Z,13.90
2019-05-20T21:06:31.682Z,12.83
2019-05-20T21:09:00.952Z,14.30
2019-05-20T21:11:30.224Z,10.70
2019-05-20T21:13:59.541Z,13.70
2019-05-20T21:16:28.818Z,16.47
2019-05-20T21:18:58.186Z,15.43
2019-05-20T21:21:27.452Z,13.33
2019-05-20T21:23:56.720Z,15.30
2019-05-20T21:26:25.991Z,14.73
2019-05-20T21:28:56.104Z,14.40
2019-05-20T21:31:25.500Z,13.63
2019-05-20T21:33:56.520Z,15.30
2019-05-20T21:36:25.882Z,13.67
2019-05-20T21:38:55.176Z,10.60
2019-05-20T21:41:24.436Z,14.53
2019-05-20T21:43:53.731Z,14.97
2019-05-20T21:46:22.918Z,15.00
2019-05-20T21:48:52.116Z,15.87
2019-05-20T21:51:21.340Z,16.10
2019-05-20T21:53:50.584Z,15.43
2019-05-20T21:56:19.869Z,13.30
2019-05-20T21:58:49.179Z,17.80
2019-05-20T22:01:18.517Z,14.10
2019-05-20T22:03:47.778Z,13.83
2019-05-20T22:06:17.149Z,11.43
2019-05-20T22:08:46.415Z,13.90
2019-05-20T22:11:15.700Z,14.03
2019-05-20T22:13:44.938Z,11.30
2019-05-20T22:16:14.361Z,12.60
2019-05-20T22:18:43.709Z,9.63
2019-05-20T22:21:14.564Z,10.85
2019-05-20T22:23:55.027Z,13.70
2019-05-20T22:26:24.263Z,11.03
2019-05-20T22:28:53.468Z,11.07
2019-05-20T22:31:22.805Z,15.08
2019-05-20T22:33:52.105Z,10.73
2019-05-20T22:36:21.802Z,12.20
2019-05-20T22:38:51.008Z,11.97
2019-05-20T22:41:20.310Z,11.67
2019-05-20T22:43:49.525Z,9.90
2019-05-20T22:46:18.735Z,10.63
2019-05-20T22:48:48.220Z,11.10
2019-05-20T22:51:17.889Z,11.47
2019-05-20T22:53:47.091Z,9.77
2019-05-20T22:56:16.379Z,7.00
2019-05-20T22:58:45.769Z,9.75
2019-05-20T23:01:14.964Z,9.68
2019-05-20T23:03:55.638Z,10.50
2019-05-20T23:06:15.196Z,11.20
2019-05-20T23:08:44.493Z,11.10
2019-05-20T23:11:13.818Z,8.50
2019-05-20T23:13:43.070Z,9.63
2019-05-20T23:16:12.329Z,9.13
2019-05-20T23:18:41.646Z,10.63
2019-05-20T23:21:10.882Z,11.73
2019-05-20T23:23:40.164Z,9.60
2019-05-20T23:26:09.386Z,12.80
2019-05-20T23:28:38.672Z,11.70
2019-05-20T23:31:08.250Z,11.93
2019-05-20T23:33:37.539Z,11.60
2019-05-20T23:36:08.277Z,10.47
2019-05-20T23:38:37.623Z,13.98
2019-05-20T23:41:06.899Z,11.17
2019-05-20T23:43:36.170Z,11.35
2019-05-20T23:46:05.531Z,11.97
2019-05-20T23:48:34.893Z,12.33
2019-05-20T23:51:04.153Z,13.15
2019-05-20T23:53:33.827Z,11.97
2019-05-20T23:56:03.062Z,10.20
2019-05-20T23:58:32.393Z,11.00
